createdAt,value
2017-09-09T00:02:08.976Z,75.96
2017-09-09T00:04:35.203Z,77.94
2017-09-09T00:07:01.474Z,78.24
2017-09-09T00:09:27.681Z,79.54
2017-09-09T00:11:53.879Z,78.30
2017-09-09T00:14:20.147Z,78.28
2017-09-09T00:16:46.375Z,77.75
2017-09-09T00:19:12.600Z,79.09
2017-09-09T00:21:38.867Z,80.96
2017-09-09T00:24:05.086Z,80.06
2017-09-09T00:26:31.319Z,81.91
2017-09-09T00:28:57.590Z,81.38
2017-09-09T00:31:23.813Z,81.45
2017-09-09T00:33:50.024Z,81.98
2017-09-09T00:36:16.304Z,82.68
2017-09-09T00:38:42.504Z,83.32
2017-09-09T00:41:08.717Z,83.45
2017-09-09T00:43:34.997Z,83.58
2017-09-09T00:46:01.198Z,83.70
2017-09-09T00:48:27.388Z,82.93
2017-09-09T00:50:53.665Z,82.88
2017-09-09T00:53:19.882Z,82.30
2017-09-09T00:55:46.104Z,82.12
2017-09-09T00:58:12.426Z,82.77
2017-09-09T01:00:38.656Z,82.80
2017-09-09T01:03:04.882Z,82.54
2017-09-09T01:05:31.137Z,82.48
2017-09-09T01:07:57.350Z,82.42
2017-09-09T01:10:23.596Z,82.96
2017-09-09T01:12:49.872Z,82.71
2017-09-09T01:15:16.091Z,82.72
2017-09-09T01:17:42.306Z,83.09
2017-09-09T01:20:08.566Z,81.59
2017-09-09T01:22:34.924Z,78.36
2017-09-09T01:25:01.135Z,78.48
2017-09-09T01:27:27.400Z,78.29
2017-09-09T01:29:53.604Z,81.40
2017-09-09T01:32:19.835Z,81.60
2017-09-09T01:34:46.106Z,80.91
2017-09-09T01:37:12.331Z,80.89
2017-09-09T01:39:38.532Z,80.58
2017-09-09T01:42:04.810Z,79.93
2017-09-09T01:44:31.027Z,80.98
2017-09-09T01:46:57.255Z,80.19
2017-09-09T01:49:23.545Z,81.20
2017-09-09T01:51:49.864Z,81.86
2017-09-09T01:54:16.080Z,82.49
2017-09-09T01:56:42.412Z,82.48
2017-09-09T01:59:08.617Z,81.65
2017-09-09T02:01:34.835Z,81.70
2017-09-09T02:04:01.120Z,82.29
2017-09-09T02:06:27.353Z,82.05
2017-09-09T02:08:53.585Z,82.06
2017-09-09T02:11:19.865Z,82.96
2017-09-09T02:13:46.068Z,82.76
2017-09-09T02:16:12.284Z,83.04
2017-09-09T02:18:38.573Z,83.01
2017-09-09T02:21:04.799Z,83.32
2017-09-09T02:23:31.009Z,82.07
2017-09-09T02:25:57.282Z,83.56
2017-09-09T02:28:23.512Z,83.46
2017-09-09T02:30:49.944Z,82.47
2017-09-09T02:33:16.223Z,83.54
2017-09-09T02:35:42.436Z,82.71
2017-09-09T02:38:08.651Z,82.78
2017-09-09T02:40:34.932Z,83.33
2017-09-09T02:43:01.283Z,83.39
2017-09-09T02:45:27.504Z,83.67
2017-09-09T02:47:53.778Z,83.38
2017-09-09T02:50:20.000Z,83.18
2017-09-09T02:52:46.218Z,83.74
2017-09-09T02:55:12.502Z,83.51
2017-09-09T02:57:38.730Z,83.77
2017-09-09T03:00:04.955Z,83.05
2017-09-09T03:02:31.236Z,83.18
2017-09-09T03:04:57.475Z,83.55
2017-09-09T03:07:23.788Z,83.30
2017-09-09T03:09:50.196Z,83.54
2017-09-09T03:12:16.425Z,82.85
2017-09-09T03:14:42.652Z,83.73
2017-09-09T03:17:09.079Z,83.87
2017-09-09T03:19:35.326Z,83.76
2017-09-09T03:22:01.556Z,84.02
2017-09-09T03:24:27.829Z,83.99
2017-09-09T03:26:54.041Z,84.34
2017-09-09T03:29:20.260Z,83.81
2017-09-09T03:31:46.532Z,84.58
2017-09-09T03:34:12.760Z,84.50
2017-09-09T03:36:38.965Z,83.76
2017-09-09T03:39:05.245Z,83.69
2017-09-09T03:41:31.480Z,83.90
2017-09-09T03:43:57.700Z,83.66
2017-09-09T03:46:23.954Z,82.97
2017-09-09T03:48:50.184Z,83.79
2017-09-09T03:51:16.403Z,83.89
2017-09-09T03:53:42.662Z,83.75
2017-09-09T03:56:08.876Z,83.64
2017-09-09T03:58:35.100Z,82.96
2017-09-09T04:01:01.388Z,82.48
2017-09-09T04:03:27.614Z,82.29
2017-09-09T04:05:53.821Z,80.79
2017-09-09T04:08:20.088Z,80.14
2017-09-09T04:10:46.321Z,76.32
2017-09-09T04:13:12.529Z,71.92
2017-09-09T04:15:38.816Z,70.39
2017-09-09T04:18:05.047Z,68.38
2017-09-09T04:20:31.267Z,65.32
2017-09-09T04:22:57.495Z,63.59
2017-09-09T04:25:23.661Z,61.71
2017-09-09T04:27:49.839Z,60.87
2017-09-09T04:30:16.066Z,59.76
2017-09-09T04:32:42.294Z,59.17
2017-09-09T04:35:08.507Z,59.15
2017-09-09T04:37:34.782Z,59.00
2017-09-09T04:40:01.016Z,59.76
2017-09-09T04:42:27.246Z,57.58
2017-09-09T04:44:53.524Z,57.23
2017-09-09T04:47:19.734Z,54.77
2017-09-09T04:49:45.941Z,50.13
2017-09-09T04:52:12.192Z,48.46
2017-09-09T04:54:38.352Z,45.72
2017-09-09T04:57:04.521Z,43.47
2017-09-09T04:59:30.896Z,41.38
2017-09-09T05:01:57.117Z,40.12
2017-09-09T05:04:23.326Z,44.34
2017-09-09T05:06:49.558Z,48.13
2017-09-09T05:09:15.731Z,49.49
2017-09-09T05:11:41.915Z,51.10
2017-09-09T05:14:08.152Z,50.49
2017-09-09T05:16:34.455Z,50.75
2017-09-09T05:19:00.631Z,53.23
2017-09-09T05:21:26.898Z,46.92
2017-09-09T05:23:53.083Z,42.51
2017-09-09T05:26:19.266Z,40.14
2017-09-09T05:28:45.507Z,37.96
2017-09-09T05:31:11.675Z,35.55
2017-09-09T05:33:37.863Z,34.67
2017-09-09T05:36:04.098Z,32.91
2017-09-09T05:38:30.285Z,31.63
2017-09-09T05:40:56.473Z,31.12
2017-09-09T05:43:22.723Z,31.69
2017-09-09T05:45:48.930Z,31.45
2017-09-09T05:48:15.123Z,31.50
2017-09-09T05:50:41.374Z,30.10
2017-09-09T05:53:07.552Z,29.39
2017-09-09T05:55:33.748Z,31.24
2017-09-09T05:57:59.999Z,27.89
2017-09-09T06:00:26.183Z,25.57
2017-09-09T06:02:52.366Z,26.78
2017-09-09T06:05:18.607Z,23.64
2017-09-09T06:07:44.787Z,23.39
2017-09-09T06:10:10.958Z,23.43
2017-09-09T06:12:37.183Z,23.14
2017-09-09T06:15:03.357Z,24.16
2017-09-09T06:17:29.542Z,24.27
2017-09-09T06:19:55.808Z,20.78
2017-09-09T06:22:21.988Z,21.44
2017-09-09T06:24:48.146Z,20.43
2017-09-09T06:27:14.347Z,19.73
2017-09-09T06:29:40.510Z,18.32
2017-09-09T06:32:06.652Z,19.53
2017-09-09T06:34:32.879Z,21.17
2017-09-09T06:36:59.030Z,21.48
2017-09-09T06:39:25.218Z,22.19
2017-09-09T06:41:51.453Z,20.99
2017-09-09T06:44:17.637Z,21.33
2017-09-09T06:46:43.823Z,20.71
2017-09-09T06:49:10.051Z,20.60
2017-09-09T06:51:36.229Z,19.31
2017-09-09T06:54:02.394Z,21.76
2017-09-09T06:56:28.635Z,21.11
2017-09-09T06:58:54.831Z,21.43
2017-09-09T07:01:21.012Z,21.52
2017-09-09T07:03:47.244Z,21.68
2017-09-09T07:06:13.431Z,20.96
2017-09-09T07:08:39.599Z,19.56
2017-09-09T07:11:05.836Z,18.72
2017-09-09T07:13:32.042Z,19.69
2017-09-09T07:15:58.206Z,20.10
2017-09-09T07:18:24.453Z,19.46
2017-09-09T07:20:50.632Z,19.00
2017-09-09T07:23:16.824Z,19.07
2017-09-09T07:25:43.079Z,17.97
2017-09-09T07:28:09.249Z,18.02
2017-09-09T07:30:35.421Z,18.44
2017-09-09T07:33:01.652Z,19.02
2017-09-09T07:35:27.836Z,17.76
2017-09-09T07:37:54.040Z,17.17
2017-09-09T07:40:20.278Z,17.74
2017-09-09T07:42:46.463Z,19.09
2017-09-09T07:45:12.631Z,19.20
2017-09-09T07:47:38.870Z,19.27
2017-09-09T07:50:05.042Z,19.83
2017-09-09T07:52:31.211Z,19.28
2017-09-09T07:54:57.458Z,19.64
2017-09-09T07:57:23.632Z,19.42
2017-09-09T07:59:49.817Z,20.58
2017-09-09T08:02:16.042Z,19.95
2017-09-09T08:04:42.206Z,19.89
2017-09-09T08:07:08.376Z,21.50
2017-09-09T08:09:34.602Z,22.23
2017-09-09T08:12:00.783Z,22.01
2017-09-09T08:14:26.961Z,21.75
2017-09-09T08:16:53.205Z,21.76
2017-09-09T08:19:19.402Z,21.43
2017-09-09T08:21:45.593Z,20.98
2017-09-09T08:24:11.823Z,20.76
2017-09-09T08:26:37.990Z,21.78
2017-09-09T08:29:04.166Z,22.12
2017-09-09T08:31:30.413Z,22.28
2017-09-09T08:33:56.592Z,20.22
2017-09-09T08:36:22.778Z,19.02
2017-09-09T08:38:48.956Z,17.96
2017-09-09T08:41:15.139Z,17.41
2017-09-09T08:43:41.322Z,18.44
2017-09-09T08:46:07.488Z,17.79
2017-09-09T08:48:33.646Z,17.15
2017-09-09T08:50:59.820Z,17.71
2017-09-09T08:53:26.110Z,17.64
2017-09-09T08:55:52.278Z,18.21
2017-09-09T08:58:18.433Z,20.02
2017-09-09T09:00:44.614Z,20.20
2017-09-09T09:03:10.869Z,21.35
2017-09-09T09:05:37.092Z,22.27
2017-09-09T09:08:03.267Z,22.48
2017-09-09T09:10:29.464Z,22.76
2017-09-09T09:12:55.660Z,23.83
2017-09-09T09:15:21.978Z,24.67
2017-09-09T09:17:48.162Z,25.41
2017-09-09T09:20:14.395Z,25.95
2017-09-09T09:22:40.578Z,26.45
2017-09-09T09:25:06.746Z,26.70
2017-09-09T09:27:33.064Z,27.47
2017-09-09T09:29:59.229Z,27.93
2017-09-09T09:32:25.397Z,27.85
2017-09-09T09:34:51.610Z,27.63
2017-09-09T09:37:17.796Z,27.72
2017-09-09T09:39:43.981Z,28.13
2017-09-09T09:42:10.254Z,28.29
2017-09-09T09:44:36.424Z,28.48
2017-09-09T09:47:02.609Z,28.74
2017-09-09T09:49:28.963Z,28.72
2017-09-09T09:51:55.145Z,29.08
2017-09-09T09:54:21.317Z,29.15
2017-09-09T09:56:47.549Z,29.14
2017-09-09T09:59:13.728Z,28.39
2017-09-09T10:01:39.898Z,28.57
2017-09-09T10:04:06.121Z,28.63
2017-09-09T10:06:32.300Z,27.72
2017-09-09T10:08:58.480Z,26.59
2017-09-09T10:11:24.723Z,25.90
2017-09-09T10:13:50.881Z,25.43
2017-09-09T10:16:17.064Z,26.23
2017-09-09T10:18:43.280Z,25.22
2017-09-09T10:21:09.440Z,24.32
2017-09-09T10:23:35.646Z,23.80
2017-09-09T10:26:01.882Z,22.77
2017-09-09T10:28:28.045Z,21.59
2017-09-09T10:30:54.211Z,22.19
2017-09-09T10:33:20.441Z,20.84
2017-09-09T10:35:46.600Z,19.97
2017-09-09T10:38:12.758Z,20.71
2017-09-09T10:40:38.988Z,20.21
2017-09-09T10:43:05.173Z,20.05
2017-09-09T10:45:31.330Z,20.91
2017-09-09T10:47:57.543Z,21.50
2017-09-09T10:50:23.716Z,20.99
2017-09-09T10:52:49.884Z,20.56
2017-09-09T10:55:16.139Z,19.69
2017-09-09T10:57:42.321Z,19.85
2017-09-09T11:00:08.499Z,19.19
2017-09-09T11:02:34.747Z,19.73
2017-09-09T11:05:01.031Z,17.73
2017-09-09T11:07:27.189Z,17.94
2017-09-09T11:09:53.426Z,18.79
2017-09-09T11:12:19.615Z,20.88
2017-09-09T11:14:45.773Z,20.34
2017-09-09T11:17:12.015Z,20.62
2017-09-09T11:19:38.174Z,19.98
2017-09-09T11:22:04.400Z,18.66
2017-09-09T11:24:30.591Z,19.74
2017-09-09T11:26:56.830Z,19.78
2017-09-09T11:29:23.084Z,19.38
2017-09-09T11:31:49.264Z,21.04
2017-09-09T11:34:15.451Z,20.95
2017-09-09T11:36:41.708Z,19.74
2017-09-09T11:39:07.889Z,18.86
2017-09-09T11:41:34.074Z,18.53
2017-09-09T11:44:00.321Z,17.82
2017-09-09T11:46:26.490Z,18.75
2017-09-09T11:48:52.673Z,19.79
2017-09-09T11:51:18.874Z,19.95
2017-09-09T11:53:45.030Z,19.68
2017-09-09T11:56:11.211Z,19.03
2017-09-09T11:58:37.463Z,19.08
2017-09-09T12:01:03.609Z,18.15
2017-09-09T12:03:29.792Z,18.44
2017-09-09T12:05:56.131Z,18.14
2017-09-09T12:08:22.293Z,18.37
2017-09-09T12:10:48.486Z,18.04
2017-09-09T12:13:14.760Z,19.08
2017-09-09T12:15:40.925Z,19.07
2017-09-09T12:18:07.777Z,18.59
2017-09-09T12:20:34.809Z,18.01
2017-09-09T12:23:01.110Z,17.81
2017-09-09T12:25:27.301Z,19.11
2017-09-09T12:27:53.673Z,18.51
2017-09-09T12:30:19.862Z,18.39
2017-09-09T12:32:46.046Z,19.28
2017-09-09T12:35:12.269Z,21.27
2017-09-09T12:37:38.458Z,22.20
2017-09-09T12:40:04.627Z,23.13
2017-09-09T12:42:30.869Z,23.37
2017-09-09T12:44:57.052Z,24.06
2017-09-09T12:47:23.428Z,23.61
2017-09-09T12:49:49.731Z,24.01
2017-09-09T12:52:15.955Z,24.20
2017-09-09T12:54:42.104Z,25.21
2017-09-09T12:57:08.352Z,24.96
2017-09-09T12:59:34.577Z,24.00
2017-09-09T13:02:00.852Z,23.70
2017-09-09T13:04:27.101Z,24.11
2017-09-09T13:06:53.261Z,24.82
2017-09-09T13:09:19.432Z,24.38
2017-09-09T13:11:45.696Z,24.27
2017-09-09T13:14:11.861Z,23.82
2017-09-09T13:16:38.081Z,23.55
2017-09-09T13:19:04.301Z,23.75
2017-09-09T13:21:30.511Z,24.13
2017-09-09T13:23:56.704Z,24.30
2017-09-09T13:26:22.917Z,24.24
2017-09-09T13:28:49.094Z,24.76
2017-09-09T13:31:15.269Z,25.05
2017-09-09T13:33:41.452Z,25.05
2017-09-09T13:36:07.625Z,26.16
2017-09-09T13:38:33.804Z,25.86
2017-09-09T13:41:00.074Z,25.44
2017-09-09T13:43:26.229Z,25.10
2017-09-09T13:45:52.435Z,25.55
2017-09-09T13:48:18.717Z,25.48
2017-09-09T13:50:45.908Z,25.61
2017-09-09T13:53:12.084Z,25.85
2017-09-09T13:55:38.292Z,26.00
2017-09-09T13:58:04.489Z,26.33
2017-09-09T14:00:30.791Z,25.87
2017-09-09T14:02:57.024Z,26.41
2017-09-09T14:05:23.192Z,26.58
2017-09-09T14:07:49.348Z,26.65
2017-09-09T14:10:15.579Z,26.88
2017-09-09T14:12:41.724Z,26.73
2017-09-09T14:15:07.881Z,27.38
2017-09-09T14:17:34.091Z,27.34
2017-09-09T14:20:00.253Z,27.04
2017-09-09T14:22:26.406Z,26.78
2017-09-09T14:24:52.611Z,27.33
2017-09-09T14:27:18.779Z,27.29
2017-09-09T14:29:44.933Z,27.40
2017-09-09T14:32:11.168Z,27.08
2017-09-09T14:34:37.341Z,27.90
2017-09-09T14:37:03.525Z,27.98
2017-09-09T14:39:29.764Z,28.22
2017-09-09T14:41:55.925Z,26.30
2017-09-09T14:44:22.097Z,27.04
2017-09-09T14:46:48.314Z,27.09
2017-09-09T14:49:14.468Z,27.69
2017-09-09T14:51:41.301Z,28.23
2017-09-09T14:54:07.515Z,28.17
2017-09-09T14:56:33.680Z,30.10
2017-09-09T14:58:59.850Z,29.62
2017-09-09T15:01:26.063Z,29.45
2017-09-09T15:03:52.251Z,30.02
2017-09-09T15:06:18.420Z,35.52
2017-09-09T15:08:44.622Z,33.52
2017-09-09T15:11:10.798Z,33.80
2017-09-09T15:13:37.040Z,33.88
2017-09-09T15:16:03.250Z,36.21
2017-09-09T15:18:29.420Z,35.54
2017-09-09T15:20:55.582Z,36.34
2017-09-09T15:23:21.799Z,36.23
2017-09-09T15:25:47.975Z,36.76
2017-09-09T15:28:14.153Z,38.81
2017-09-09T15:30:40.384Z,39.80
2017-09-09T15:33:06.561Z,41.61
2017-09-09T15:35:32.724Z,40.06
2017-09-09T15:37:58.935Z,41.67
2017-09-09T15:40:25.108Z,41.19
2017-09-09T15:45:22.766Z,41.05
2017-09-09T15:47:48.935Z,43.14
2017-09-09T15:50:15.159Z,43.70
2017-09-09T15:52:41.388Z,43.10
2017-09-09T15:55:07.577Z,46.70
2017-09-09T15:57:33.760Z,47.54
2017-09-09T16:00:00.076Z,44.95
2017-09-09T16:02:26.248Z,45.59
2017-09-09T16:04:52.430Z,46.13
2017-09-09T16:07:18.638Z,46.74
2017-09-09T16:09:44.811Z,45.03
2017-09-09T16:12:10.972Z,48.64
2017-09-09T16:14:37.214Z,43.05
2017-09-09T16:17:03.379Z,45.61
2017-09-09T16:19:29.549Z,47.71
2017-09-09T16:21:55.805Z,53.05
2017-09-09T16:24:21.987Z,58.05
2017-09-09T16:26:48.153Z,62.03
2017-09-09T16:29:14.379Z,64.57
2017-09-09T16:31:40.559Z,67.82
2017-09-09T16:34:06.753Z,68.34
2017-09-09T16:36:32.978Z,73.64
2017-09-09T16:38:59.176Z,75.64
2017-09-09T16:41:25.441Z,77.64
2017-09-09T16:43:51.708Z,80.70
2017-09-09T16:46:17.905Z,80.02
2017-09-09T16:48:44.095Z,78.37
2017-09-09T16:51:10.259Z,84.23
2017-09-09T16:53:36.417Z,84.51
2017-09-09T16:56:02.835Z,84.60
2017-09-09T16:58:29.906Z,85.09
2017-09-09T17:00:56.055Z,86.78
2017-09-09T17:03:22.268Z,85.75
2017-09-09T17:05:48.451Z,85.98
2017-09-09T17:08:14.634Z,86.75
2017-09-09T17:10:40.840Z,88.37
2017-09-09T17:13:07.018Z,88.61
2017-09-09T17:15:33.173Z,88.52
2017-09-09T17:17:59.466Z,89.29
2017-09-09T17:20:25.637Z,89.16
2017-09-09T17:22:51.815Z,88.88
2017-09-09T17:25:18.055Z,88.57
2017-09-09T17:27:44.393Z,88.94
2017-09-09T17:30:10.568Z,89.03
2017-09-09T17:32:36.779Z,88.62
2017-09-09T17:35:02.934Z,88.52
2017-09-09T17:37:29.113Z,88.97
2017-09-09T17:39:55.357Z,89.07
2017-09-09T17:42:21.522Z,89.32
2017-09-09T17:44:47.789Z,89.19
2017-09-09T17:47:14.044Z,89.35
2017-09-09T17:49:40.234Z,89.49
2017-09-09T17:52:06.415Z,89.65
2017-09-09T17:54:32.707Z,89.85
2017-09-09T17:56:58.869Z,90.30
2017-09-09T17:59:25.041Z,90.76
2017-09-09T18:01:51.264Z,90.90
2017-09-09T18:04:17.430Z,90.80
2017-09-09T18:06:43.596Z,90.36
2017-09-09T18:09:09.819Z,90.47
2017-09-09T18:11:35.992Z,90.51
2017-09-09T18:14:02.158Z,90.65
2017-09-09T18:16:28.373Z,90.32
2017-09-09T18:18:54.593Z,90.23
2017-09-09T18:21:20.819Z,90.25
2017-09-09T18:23:47.055Z,90.32
2017-09-09T18:26:13.198Z,90.65
2017-09-09T18:28:39.353Z,90.10
2017-09-09T18:31:05.564Z,90.16
2017-09-09T18:33:31.734Z,90.20
2017-09-09T18:35:57.908Z,90.02
2017-09-09T18:38:24.109Z,89.75
2017-09-09T18:40:50.265Z,89.75
2017-09-09T18:43:16.428Z,89.35
2017-09-09T18:45:42.654Z,89.99
2017-09-09T18:48:08.807Z,90.61
2017-09-09T18:50:34.955Z,90.95
2017-09-09T18:53:01.223Z,91.12
2017-09-09T18:55:27.361Z,91.14
2017-09-09T18:57:53.502Z,91.06
2017-09-09T19:00:19.720Z,91.23
2017-09-09T19:02:45.869Z,90.97
2017-09-09T19:05:12.034Z,90.94
2017-09-09T19:07:38.285Z,90.45
2017-09-09T19:10:04.446Z,90.72
2017-09-09T19:12:30.621Z,91.13
2017-09-09T19:14:56.844Z,91.08
2017-09-09T19:17:23.014Z,91.04
2017-09-09T19:19:49.195Z,91.43
2017-09-09T19:22:15.463Z,91.08
2017-09-09T19:24:41.665Z,91.29
2017-09-09T19:27:07.820Z,91.92
2017-09-09T19:29:34.040Z,91.89
2017-09-09T19:32:00.191Z,92.10
2017-09-09T19:34:26.330Z,92.33
2017-09-09T19:36:52.549Z,92.58
2017-09-09T19:39:18.716Z,92.78
2017-09-09T19:41:44.906Z,92.68
2017-09-09T19:44:11.126Z,92.86
2017-09-09T19:46:37.321Z,92.48
2017-09-09T19:49:03.532Z,92.67
2017-09-09T19:51:29.764Z,92.96
2017-09-09T19:53:55.948Z,93.12
2017-09-09T19:58:54.904Z,93.35
2017-09-09T20:01:21.075Z,94.05
2017-09-09T20:03:47.238Z,94.02
2017-09-09T20:06:13.479Z,94.10
2017-09-09T20:08:39.649Z,94.08
2017-09-09T20:11:05.910Z,94.16
2017-09-09T20:13:32.140Z,94.04
2017-09-09T20:15:58.350Z,94.09
2017-09-09T20:18:24.516Z,93.88
2017-09-09T20:20:50.734Z,94.00
2017-09-09T20:23:16.905Z,94.25
2017-09-09T20:25:43.082Z,94.38
2017-09-09T20:28:09.278Z,94.01
2017-09-09T20:30:35.442Z,94.01
2017-09-09T20:33:01.603Z,93.89
2017-09-09T20:35:27.818Z,93.91
2017-09-09T20:37:53.993Z,93.84
2017-09-09T20:40:20.185Z,93.46
2017-09-09T20:42:46.416Z,93.41
2017-09-09T20:45:12.581Z,93.57
2017-09-09T20:47:38.756Z,93.53
2017-09-09T20:50:05.002Z,93.42
2017-09-09T20:52:31.185Z,93.53
2017-09-09T20:54:57.351Z,93.37
2017-09-09T20:57:23.584Z,93.22
2017-09-09T20:59:49.754Z,93.11
2017-09-09T21:02:15.932Z,93.13
2017-09-09T21:04:42.141Z,93.57
2017-09-09T21:07:08.304Z,93.49
2017-09-09T21:09:34.463Z,93.46
2017-09-09T21:12:00.690Z,93.43
2017-09-09T21:14:26.854Z,93.04
2017-09-09T21:16:53.034Z,92.21
2017-09-09T21:19:19.257Z,92.20
2017-09-09T21:21:45.430Z,91.85
2017-09-09T21:24:11.598Z,92.33
2017-09-09T21:26:37.817Z,91.84
2017-09-09T21:29:04.007Z,91.57
2017-09-09T21:31:30.191Z,91.43
2017-09-09T21:33:56.401Z,90.99
2017-09-09T21:36:22.569Z,90.51
2017-09-09T21:38:48.804Z,90.57
2017-09-09T21:41:15.156Z,90.17
2017-09-09T21:43:41.443Z,91.16
2017-09-09T21:46:07.652Z,91.88
2017-09-09T21:48:33.857Z,91.33
2017-09-09T21:51:00.015Z,90.75
2017-09-09T21:53:26.164Z,91.40
2017-09-09T21:55:52.379Z,91.35
2017-09-09T21:58:18.542Z,91.78
2017-09-09T22:00:44.698Z,91.67
2017-09-09T22:03:10.941Z,91.27
2017-09-09T22:05:37.107Z,92.17
2017-09-09T22:08:03.262Z,92.12
2017-09-09T22:10:29.470Z,92.19
2017-09-09T22:12:55.641Z,92.57
2017-09-09T22:15:21.795Z,92.48
2017-09-09T22:17:48.000Z,92.61
2017-09-09T22:20:14.161Z,92.71
2017-09-09T22:22:40.334Z,92.86
2017-09-09T22:25:06.560Z,93.32
2017-09-09T22:27:32.728Z,93.56
2017-09-09T22:29:58.909Z,93.62
2017-09-09T22:32:25.176Z,93.82
2017-09-09T22:34:51.344Z,93.95
2017-09-09T22:39:50.157Z,93.85
2017-09-09T22:42:16.320Z,93.59
2017-09-09T22:44:42.493Z,93.74
2017-09-09T22:47:08.751Z,94.00
2017-09-09T22:49:34.923Z,93.91
2017-09-09T22:52:01.087Z,93.95
2017-09-09T22:54:27.321Z,93.83
2017-09-09T22:56:53.485Z,93.97
2017-09-09T22:59:19.650Z,93.62
2017-09-09T23:01:45.870Z,93.44
2017-09-09T23:04:12.045Z,93.35
2017-09-09T23:06:38.211Z,93.49
2017-09-09T23:09:04.432Z,93.22
2017-09-09T23:11:30.595Z,93.07
2017-09-09T23:13:56.740Z,93.01
2017-09-09T23:16:22.970Z,93.24
2017-09-09T23:18:49.191Z,93.54
2017-09-09T23:21:15.363Z,93.53
2017-09-09T23:23:41.586Z,93.37
2017-09-09T23:26:07.741Z,93.85
2017-09-09T23:28:33.902Z,93.96
2017-09-09T23:31:00.105Z,94.12
2017-09-09T23:33:26.261Z,94.04
2017-09-09T23:35:52.437Z,94.09
2017-09-09T23:38:18.655Z,94.31
2017-09-09T23:40:44.835Z,94.29
2017-09-09T23:43:11.006Z,94.57
2017-09-09T23:45:37.245Z,94.24
2017-09-09T23:48:03.417Z,93.80
2017-09-09T23:50:29.598Z,93.64
2017-09-09T23:52:55.829Z,93.55
2017-09-09T23:55:22.009Z,93.25
2017-09-09T23:57:48.170Z,92.97
